Milan, IL (61264)

7:12 AM CST on January 17, 2017 (GMT -0600)
West Central Davenport | | Change Station
Active Advisory: Flood Warning

Elev 704 ft 41.53 °N, 90.61 °W | Updated 4 seconds ago

Overcast
Overcast
33.9 °F
Feels Like 29 °F
N
5.2
Wind Variable Wind from West
Gusts 8.0 mph

Today
High -- | Low -- °F
--% Chance of Precip.
Yesterday
High -- | Low -- °F
Precip. -- in
Pressure 29.89 in
Visibility 2.0 miles
Clouds Overcast 300 ft
Windchill 29 °F
Dew Point 33 °F
Humidity 96%
Rainfall 0.00 in
Snow Depth Not available.
7:25 AM 5:00 PM
Waning Gibbous, 72% visible
METAR KMLI 171252Z 24008KT 2SM BR OVC003 02/01 A2987 RMK AO2 SLP121 T00170006
Pressure 29.89 in
Visibility 2.0 miles
Clouds Overcast 300 ft
Windchill 29 °F
Dew Point 33 °F
Humidity 96%
Rainfall 0.00 in
Snow Depth Not available.
7:25 AM 5:00 PM
Waning Gibbous, 72% visible
METAR KMLI 171252Z 24008KT 2SM BR OVC003 02/01 A2987 RMK AO2 SLP121 T00170006

Get Your Daily Forecast Email!

Thanks for signing up!

Be on the lookout for a verification email in your inbox.

You'll start receiving the daily forecast at 8 AM.

×

10-Day Weather Forecast

Almanac

Astronomy

Jan. 17, 2017 Rise Set
Actual Time
Civil Twilight
Nautical Twilight
Astronomical Twilight
Moon
Length of Visible Light
Length of Day
Tomorrow will be .
, % of the Moon is Illuminated

Today's Extremes

State Highs State Lows

Community

WunderPhotos

Upload Photos

1,962,540 photos uploaded!

WunderBlog® & News

Nearby

Air Quality

  Air Quality AQ Index Pollutant
Not available.

Snow Depth

Station Depth Elevation

Earthquake Activity

City Distance Mag. Time & Date
Minimum magnitude displayed is 2.5.

Coastal Water Temperatures

Place Temperature

Stations

Nearby Weather Stations

Station Location Temp. Windchill Dew Point Humidity Wind Precip. Elev Updated Type
                   

Watches & Warnings

Flood Warning
Issued: 6:41 AM CST Jan. 17, 2017 – National Weather Service

... Flood Warning remains in effect until further notice...

The Flood Warning continues for
the Rock River near Joslin.
* Until further notice.
* At 5:45 am Tuesday the stage was 12.3 feet... and rising.
* Flood stage is 12.0 feet.
* Minor flooding is occurring and is forecast to continue.
* Forecast... rise to 13.2 feet Thursday evening... then begin falling.
* Impact... at 13.0 feet... flooding of unprotected agricultural land
occurs. Water also affects lundeens Landing campground.


Lat... Lon 4152 9032 4148 9027 4163 8999 4169 9002